createdAt,value
2023-05-16T00:00:49.018Z,95864.38
2023-05-16T00:03:16.187Z,95863.69
2023-05-16T00:05:43.125Z,95882.59
2023-05-16T00:08:09.973Z,95866.59
2023-05-16T00:10:37.729Z,95838.00
2023-05-16T00:13:04.908Z,95869.44
2023-05-16T00:15:31.752Z,95850.00
2023-05-16T00:18:01.356Z,95862.19
2023-05-16T00:20:29.249Z,95863.16
2023-05-16T00:22:56.425Z,95834.41
2023-05-16T00:25:23.655Z,95848.00
2023-05-16T00:27:50.654Z,95861.63
2023-05-16T00:30:17.680Z,95861.09
2023-05-16T00:32:44.662Z,95841.41
2023-05-16T00:35:12.693Z,95845.50
2023-05-16T00:37:40.110Z,95868.81
2023-05-16T00:40:07.911Z,95839.44
2023-05-16T00:42:36.522Z,95840.88
2023-05-16T00:45:04.487Z,95852.84
2023-05-16T00:47:31.476Z,95868.81
2023-05-16T00:49:58.837Z,95856.56
2023-05-16T00:52:26.770Z,95874.19
2023-05-16T00:54:53.815Z,95861.97
2023-05-16T00:57:20.990Z,95850.19
2023-05-16T00:59:48.021Z,95875.19
2023-05-16T01:02:15.329Z,95859.25
2023-05-16T01:04:43.539Z,95838.78
2023-05-16T01:07:10.789Z,95864.25
2023-05-16T01:09:38.546Z,95867.66
2023-05-16T01:12:22.652Z,95838.78
2023-05-16T01:14:56.979Z,95863.75
2023-05-16T01:17:31.549Z,95867.66
2023-05-16T01:20:19.371Z,95832.44
2023-05-16T01:22:49.168Z,95802.59
2023-05-16T01:25:33.171Z,95860.84
2023-05-16T01:28:01.573Z,95860.88
2023-05-16T01:30:34.079Z,95863.34
2023-05-16T01:33:01.709Z,95853.91
2023-05-16T01:35:29.234Z,95819.56
2023-05-16T01:38:11.753Z,95840.81
2023-05-16T01:40:47.032Z,95860.91
2023-05-16T01:43:21.059Z,95872.94
2023-05-16T01:45:55.842Z,95867.50
2023-05-16T01:48:31.043Z,95846.44
2023-05-16T01:51:00.800Z,95838.69
2023-05-16T01:53:33.633Z,95862.44
2023-05-16T01:56:02.552Z,95864.94
2023-05-16T01:58:33.391Z,95875.59
2023-05-16T02:01:03.994Z,95869.56
2023-05-16T02:03:32.227Z,95854.41
2023-05-16T02:05:59.691Z,95852.78
2023-05-16T02:08:27.699Z,95861.34
2023-05-16T02:10:54.543Z,95874.31
2023-05-16T02:13:21.411Z,95872.78
2023-05-16T02:15:48.253Z,95839.69
2023-05-16T02:18:15.147Z,95863.41
2023-05-16T02:20:43.189Z,95878.59
2023-05-16T02:23:10.049Z,95863.34
2023-05-16T02:25:36.917Z,95868.69
2023-05-16T02:28:03.862Z,95838.94
2023-05-16T02:30:30.798Z,95870.00
2023-05-16T02:32:57.649Z,95830.13
2023-05-16T02:35:24.947Z,95844.91
2023-05-16T02:37:51.887Z,95863.47
2023-05-16T02:40:18.833Z,95858.47
2023-05-16T02:42:45.644Z,95849.88
2023-05-16T02:45:12.786Z,95874.03
2023-05-16T02:47:39.660Z,95877.41
2023-05-16T02:50:06.968Z,95907.13
2023-05-16T02:52:34.835Z,95872.09
2023-05-16T02:55:16.861Z,95894.06
2023-05-16T02:57:48.364Z,95854.19
2023-05-16T03:00:18.502Z,95868.47
2023-05-16T03:02:46.172Z,95861.19
2023-05-16T03:05:13.594Z,95866.03
2023-05-16T03:07:40.639Z,95849.41
2023-05-16T03:10:08.174Z,95892.91
2023-05-16T03:12:35.011Z,95901.50
2023-05-16T03:15:02.207Z,95853.69
2023-05-16T03:17:29.589Z,95890.56
2023-05-16T03:19:57.547Z,95893.38
2023-05-16T03:22:24.533Z,95898.38
2023-05-16T03:24:51.437Z,95897.47
2023-05-16T03:27:18.319Z,95880.38
2023-05-16T03:29:45.097Z,95843.16
2023-05-16T03:32:12.192Z,95887.19
2023-05-16T03:34:39.066Z,95872.50
2023-05-16T03:37:06.784Z,95899.44
2023-05-16T03:39:33.837Z,95870.47
2023-05-16T03:42:00.681Z,95907.50
2023-05-16T03:44:27.499Z,95874.09
2023-05-16T03:46:56.195Z,95881.94
2023-05-16T03:49:27.203Z,95903.53
2023-05-16T03:51:54.075Z,95902.41
2023-05-16T03:54:20.970Z,95884.19
2023-05-16T03:56:47.829Z,95901.94
2023-05-16T03:59:14.927Z,95894.97
2023-05-16T04:01:41.820Z,95915.03
2023-05-16T04:04:08.753Z,95910.47
2023-05-16T04:06:35.884Z,95923.00
2023-05-16T04:09:02.742Z,95899.25
2023-05-16T04:11:29.691Z,95933.06
2023-05-16T04:13:57.190Z,95917.13
2023-05-16T04:16:24.119Z,95910.59
2023-05-16T04:18:51.090Z,95922.66
2023-05-16T04:21:17.928Z,95939.31
2023-05-16T04:23:45.057Z,95885.72
2023-05-16T04:26:11.965Z,95928.13
2023-05-16T04:28:38.800Z,95935.31
2023-05-16T04:31:06.041Z,95905.25
2023-05-16T04:33:32.954Z,95930.59
2023-05-16T04:36:00.413Z,95947.25
2023-05-16T04:38:27.247Z,95911.19
2023-05-16T04:40:54.263Z,95914.44
2023-05-16T04:43:21.180Z,95935.72
2023-05-16T04:45:48.933Z,95936.63
2023-05-16T04:48:15.969Z,95909.16
2023-05-16T04:50:42.843Z,95932.56
2023-05-16T04:53:10.162Z,95863.22
2023-05-16T04:55:37.197Z,95926.44
2023-05-16T04:58:04.106Z,95923.38
2023-05-16T05:00:30.957Z,95902.44
2023-05-16T05:02:57.930Z,95945.59
2023-05-16T05:05:24.867Z,95917.38
2023-05-16T05:07:51.791Z,95925.91
2023-05-16T05:10:18.746Z,95948.34
2023-05-16T05:12:45.615Z,95924.44
2023-05-16T05:15:13.489Z,95913.97
2023-05-16T05:17:40.553Z,95947.50
2023-05-16T05:20:08.824Z,95891.91
2023-05-16T05:22:35.687Z,95940.56
2023-05-16T05:25:02.887Z,95925.44
2023-05-16T05:27:29.780Z,95935.25
2023-05-16T05:29:56.627Z,95955.53
2023-05-16T05:32:23.846Z,95940.25
2023-05-16T05:34:50.880Z,95928.56
2023-05-16T05:37:17.706Z,95954.13
2023-05-16T05:39:45.351Z,95932.41
2023-05-16T05:42:15.023Z,95933.31
2023-05-16T05:44:41.917Z,95929.72
2023-05-16T05:47:09.110Z,95939.41
2023-05-16T05:49:36.343Z,95919.75
2023-05-16T05:52:03.375Z,95926.81
2023-05-16T05:54:30.541Z,95922.13
2023-05-16T05:56:59.665Z,95947.88
2023-05-16T05:59:26.642Z,95956.59
2023-05-16T06:01:53.591Z,95955.88
2023-05-16T06:04:21.047Z,95951.03
2023-05-16T06:06:48.396Z,95917.81
2023-05-16T06:09:15.359Z,95922.56
2023-05-16T06:11:43.569Z,95948.75
2023-05-16T06:14:10.498Z,95949.31
2023-05-16T06:16:37.438Z,95937.41
2023-05-16T06:19:04.476Z,95946.00
2023-05-16T06:21:31.368Z,95951.59
2023-05-16T06:23:58.205Z,95949.41
2023-05-16T06:26:25.197Z,95933.69
2023-05-16T06:28:52.016Z,95917.09
2023-05-16T06:31:18.849Z,95973.72
2023-05-16T06:33:46.144Z,95954.56
2023-05-16T06:36:12.974Z,95966.16
2023-05-16T06:38:39.821Z,95939.31
2023-05-16T06:41:06.611Z,95949.31
2023-05-16T06:43:33.487Z,95969.88
2023-05-16T06:46:00.432Z,95956.09
2023-05-16T06:48:27.480Z,95951.44
2023-05-16T06:50:54.492Z,95965.94
2023-05-16T06:53:21.638Z,95988.44
2023-05-16T06:55:48.900Z,95960.66
2023-05-16T06:58:15.861Z,95979.00
2023-05-16T07:00:44.241Z,95960.66
2023-05-16T07:03:11.375Z,95973.28
2023-05-16T07:05:38.368Z,95969.06
2023-05-16T07:08:07.815Z,95966.41
2023-05-16T07:10:35.009Z,95965.91
2023-05-16T07:13:02.335Z,95974.69
2023-05-16T07:15:29.476Z,95979.53
2023-05-16T07:17:57.483Z,95982.41
2023-05-16T07:20:25.780Z,95949.84
2023-05-16T07:22:52.743Z,95969.03
2023-05-16T07:25:19.679Z,95986.78
2023-05-16T07:27:46.635Z,95952.72
2023-05-16T07:30:14.502Z,95995.50
2023-05-16T07:32:42.127Z,95992.06
2023-05-16T07:35:09.835Z,95967.75
2023-05-16T07:37:36.817Z,95969.41
2023-05-16T07:40:04.080Z,95987.34
2023-05-16T07:42:31.950Z,95973.47
2023-05-16T07:44:58.845Z,95965.72
2023-05-16T07:47:26.095Z,95963.91
2023-05-16T07:49:53.035Z,95991.16
2023-05-16T07:52:20.018Z,95968.94
2023-05-16T07:54:47.635Z,95998.28
2023-05-16T07:57:15.737Z,95993.00
2023-05-16T07:59:43.648Z,95997.91
2023-05-16T08:02:11.627Z,95986.34
2023-05-16T08:04:38.896Z,96004.13
2023-05-16T08:07:06.294Z,95984.47
2023-05-16T08:09:33.352Z,95990.13
2023-05-16T08:12:04.024Z,96009.41
2023-05-16T08:14:34.394Z,96013.53
2023-05-16T08:17:01.613Z,96013.59
2023-05-16T08:19:29.712Z,95999.25
2023-05-16T08:21:56.703Z,96021.72
2023-05-16T08:24:23.785Z,96014.25
2023-05-16T08:26:50.991Z,96022.50
2023-05-16T08:29:17.856Z,96009.16
2023-05-16T08:31:44.855Z,96011.47
2023-05-16T08:34:11.746Z,96021.97
2023-05-16T08:36:39.173Z,96009.16
2023-05-16T08:39:06.298Z,96005.19
2023-05-16T08:41:33.638Z,96026.78
2023-05-16T08:44:00.703Z,96000.19
2023-05-16T08:46:29.242Z,96002.63
2023-05-16T08:49:03.184Z,96014.13
2023-05-16T08:51:35.618Z,96003.06
2023-05-16T08:54:12.008Z,95998.88
2023-05-16T08:56:41.194Z,96012.69
2023-05-16T08:59:08.224Z,96012.97
2023-05-16T09:01:36.206Z,96021.22
2023-05-16T09:04:06.159Z,96017.25
2023-05-16T09:06:33.147Z,96009.72
2023-05-16T09:09:00.115Z,96029.69
2023-05-16T09:11:26.963Z,96030.53
2023-05-16T09:13:53.883Z,96023.38
2023-05-16T09:16:21.710Z,96016.84
2023-05-16T09:18:58.008Z,96010.31
2023-05-16T09:21:29.139Z,96024.59
2023-05-16T09:23:56.397Z,96038.75
2023-05-16T09:26:23.356Z,96024.75
2023-05-16T09:28:54.188Z,96054.53
2023-05-16T09:31:27.127Z,96037.13
2023-05-16T09:33:56.958Z,96054.25
2023-05-16T09:36:24.038Z,96027.84
2023-05-16T09:38:52.261Z,96047.13
2023-05-16T09:41:19.229Z,96044.94
2023-05-16T09:43:46.686Z,96026.34
2023-05-16T09:46:17.176Z,96037.34
2023-05-16T09:48:48.383Z,96047.81
2023-05-16T09:51:16.457Z,96045.06
2023-05-16T09:53:43.808Z,96037.72
2023-05-16T09:56:12.882Z,96027.69
2023-05-16T09:58:41.094Z,96019.66
2023-05-16T10:01:09.086Z,96037.16
2023-05-16T10:03:41.086Z,96023.22
2023-05-16T10:06:09.277Z,96001.00
2023-05-16T10:08:37.393Z,96021.38
2023-05-16T10:11:06.704Z,96020.44
2023-05-16T10:13:36.184Z,96030.31
2023-05-16T10:16:10.281Z,96024.72
2023-05-16T10:18:38.992Z,96030.75
2023-05-16T10:21:11.792Z,96002.94
2023-05-16T10:23:42.639Z,96029.94
2023-05-16T10:26:11.642Z,96027.00
2023-05-16T10:28:40.716Z,96026.38
2023-05-16T10:31:10.143Z,96030.63
2023-05-16T10:33:37.348Z,96029.56
2023-05-16T10:36:05.763Z,96019.09
2023-05-16T10:38:34.764Z,95991.91
2023-05-16T10:41:02.353Z,96034.31
2023-05-16T10:43:33.743Z,96038.94
2023-05-16T10:46:05.664Z,96043.94
2023-05-16T10:48:38.000Z,96025.59
2023-05-16T10:51:35.581Z,96045.44
2023-05-16T10:54:15.047Z,96038.22
2023-05-16T10:56:43.563Z,96047.03
2023-05-16T10:59:24.506Z,96061.56
2023-05-16T11:01:56.476Z,96059.91
2023-05-16T11:04:23.558Z,96027.50
2023-05-16T11:06:53.093Z,96026.22
2023-05-16T11:09:23.627Z,96055.22
2023-05-16T11:11:53.713Z,96051.75
2023-05-16T11:14:45.437Z,96047.97
2023-05-16T11:17:20.967Z,96051.59
2023-05-16T11:19:52.931Z,96047.84
2023-05-16T11:22:19.742Z,96062.72
2023-05-16T11:24:57.989Z,96039.41
2023-05-16T11:27:36.492Z,96063.53
2023-05-16T11:30:06.556Z,96059.41
2023-05-16T11:32:38.819Z,96047.09
2023-05-16T11:35:09.035Z,96057.81
2023-05-16T11:37:42.583Z,96059.38
2023-05-16T11:40:11.712Z,96061.59
2023-05-16T11:42:45.140Z,96081.19
2023-05-16T11:45:16.442Z,96051.66
2023-05-16T11:47:45.422Z,96052.84
2023-05-16T11:50:23.896Z,96051.41
2023-05-16T11:52:57.732Z,96032.66
2023-05-16T11:55:41.488Z,96056.41
2023-05-16T11:58:09.736Z,96075.09
2023-05-16T12:00:36.760Z,96065.28
2023-05-16T12:03:06.176Z,96077.16
2023-05-16T12:05:35.365Z,96061.41
2023-05-16T12:08:05.273Z,96077.41
2023-05-16T12:10:34.984Z,96027.38
2023-05-16T12:13:03.678Z,96054.25
2023-05-16T12:15:31.330Z,96049.22
2023-05-16T12:17:58.984Z,96047.41
2023-05-16T12:20:26.419Z,96053.34
2023-05-16T12:22:53.528Z,96076.44
2023-05-16T12:25:36.284Z,96087.25
2023-05-16T12:28:04.697Z,96039.66
2023-05-16T12:30:33.019Z,96064.06
2023-05-16T12:33:09.749Z,96083.09
2023-05-16T12:35:39.644Z,96061.41
2023-05-16T12:38:14.473Z,96079.31
2023-05-16T12:40:43.708Z,96085.41
2023-05-16T12:43:20.095Z,96030.34
2023-05-16T12:45:53.763Z,96087.19
2023-05-16T12:48:21.575Z,96104.13
2023-05-16T12:50:49.043Z,96092.78
2023-05-16T12:53:18.307Z,96085.81
2023-05-16T12:55:45.798Z,96107.09
2023-05-16T12:58:13.053Z,96104.63
2023-05-16T13:00:40.470Z,96087.91
2023-05-16T13:03:08.250Z,96111.38
2023-05-16T13:05:36.632Z,96085.69
2023-05-16T13:08:04.525Z,96109.69
2023-05-16T13:10:31.660Z,96099.84
2023-05-16T13:13:00.504Z,96126.69
2023-05-16T13:15:28.248Z,96119.13
2023-05-16T13:17:55.968Z,96101.78
2023-05-16T13:20:23.124Z,96122.59
2023-05-16T13:22:50.212Z,96115.88
2023-05-16T13:25:17.370Z,96130.94
2023-05-16T13:27:44.552Z,96118.16
2023-05-16T13:30:12.069Z,96121.94
2023-05-16T13:32:39.506Z,96123.31
2023-05-16T13:35:07.211Z,96126.66
2023-05-16T13:37:34.566Z,96141.97
2023-05-16T13:40:02.092Z,96140.03
2023-05-16T13:42:29.174Z,96120.09
2023-05-16T13:44:56.635Z,96118.56
2023-05-16T13:47:23.698Z,96104.13
2023-05-16T13:49:50.978Z,96148.28
2023-05-16T13:52:18.349Z,96163.03
2023-05-16T13:54:45.518Z,96156.88
2023-05-16T14:00:48.863Z,96145.34
2023-05-16T14:03:16.257Z,96150.31
2023-05-16T14:05:43.371Z,96143.13
2023-05-16T14:08:10.437Z,96154.69
2023-05-16T14:14:21.517Z,96156.81
2023-05-16T14:16:48.544Z,96138.50
2023-05-16T14:19:18.171Z,96131.66
2023-05-16T14:21:46.375Z,96159.31
2023-05-16T14:24:13.326Z,96158.56
2023-05-16T14:26:40.198Z,96164.84
2023-05-16T14:29:07.282Z,96123.88
2023-05-16T14:31:36.662Z,96168.91
2023-05-16T14:34:03.681Z,96140.22
2023-05-16T14:36:32.243Z,96153.28
2023-05-16T14:38:59.436Z,96176.47
2023-05-16T14:41:26.852Z,96179.53
2023-05-16T14:43:56.634Z,96174.00
2023-05-16T14:46:23.597Z,96176.69
2023-05-16T14:48:51.354Z,96160.66
2023-05-16T14:51:18.445Z,96149.97
2023-05-16T14:53:46.976Z,96137.56
2023-05-16T14:56:14.494Z,96174.59
2023-05-16T14:58:41.366Z,96173.50
2023-05-16T15:01:08.270Z,96164.56
2023-05-16T15:03:46.962Z,96137.91
2023-05-16T15:06:17.968Z,96143.75
2023-05-16T15:08:44.830Z,96177.56
2023-05-16T15:11:12.038Z,96154.66
2023-05-16T15:13:39.344Z,96164.03
2023-05-16T15:16:06.543Z,96177.13
2023-05-16T15:18:33.628Z,96175.78
2023-05-16T15:21:00.694Z,96175.59
2023-05-16T15:23:27.751Z,96153.09
2023-05-16T15:25:55.027Z,96180.88
2023-05-16T15:28:22.800Z,96122.19
2023-05-16T15:30:51.521Z,96182.50
2023-05-16T15:33:18.530Z,96172.63
2023-05-16T15:35:45.764Z,96181.66
2023-05-16T15:38:12.856Z,96196.44
2023-05-16T15:40:39.766Z,96171.41
2023-05-16T15:43:06.713Z,96184.97
2023-05-16T15:45:33.972Z,96154.41
2023-05-16T15:48:01.017Z,96187.25
2023-05-16T15:50:28.037Z,96172.16
2023-05-16T15:52:55.102Z,96173.03
2023-05-16T15:55:22.234Z,96189.25
2023-05-16T15:57:49.181Z,96190.81
2023-05-16T16:00:16.616Z,96172.03
2023-05-16T16:02:45.469Z,96198.38
2023-05-16T16:05:12.491Z,96176.06
2023-05-16T16:07:39.406Z,96209.69
2023-05-16T16:10:07.115Z,96172.72
2023-05-16T16:12:34.036Z,96204.63
2023-05-16T16:15:02.565Z,96206.34
2023-05-16T16:17:29.640Z,96193.81
2023-05-16T16:19:56.969Z,96198.31
2023-05-16T16:22:24.001Z,96216.53
2023-05-16T16:24:50.930Z,96217.69
2023-05-16T16:27:18.008Z,96197.38
2023-05-16T16:29:45.422Z,96227.19
2023-05-16T16:32:12.334Z,96216.94
2023-05-16T16:34:39.238Z,96239.56
2023-05-16T16:37:06.273Z,96239.81
2023-05-16T16:39:33.453Z,96239.72
2023-05-16T16:42:00.478Z,96242.09
2023-05-16T16:44:27.381Z,96218.88
2023-05-16T16:46:54.387Z,96234.97
2023-05-16T16:49:21.459Z,96239.84
2023-05-16T16:51:48.466Z,96252.34
2023-05-16T16:54:15.317Z,96229.31
2023-05-16T16:56:42.393Z,96255.84
2023-05-16T16:59:10.110Z,96261.75
2023-05-16T17:01:37.202Z,96264.66
2023-05-16T17:04:04.621Z,96220.53
2023-05-16T17:06:31.495Z,96218.03
2023-05-16T17:09:02.635Z,96255.59
2023-05-16T17:11:30.565Z,96249.31
2023-05-16T17:13:59.914Z,96254.78
2023-05-16T17:16:29.489Z,96269.47
2023-05-16T17:18:56.600Z,96245.03
2023-05-16T17:21:23.568Z,96287.53
2023-05-16T17:23:53.686Z,96286.94
2023-05-16T17:26:20.897Z,96294.09
2023-05-16T17:28:49.559Z,96282.50
2023-05-16T17:31:16.980Z,96274.56
2023-05-16T17:33:44.727Z,96293.28
2023-05-16T17:36:11.710Z,96292.28
2023-05-16T17:38:38.865Z,96299.25
2023-05-16T17:41:05.908Z,96291.38
2023-05-16T17:43:33.003Z,96281.00
2023-05-16T17:46:00.078Z,96264.44
2023-05-16T17:48:28.214Z,96285.00
2023-05-16T17:50:55.173Z,96312.44
2023-05-16T17:53:22.245Z,96270.81
2023-05-16T17:55:49.871Z,96324.69
2023-05-16T17:58:18.121Z,96302.19
2023-05-16T18:00:46.912Z,96308.88
2023-05-16T18:03:13.887Z,96295.63
2023-05-16T18:05:41.003Z,96312.31
2023-05-16T18:08:08.654Z,96322.47
2023-05-16T18:10:50.463Z,96336.09
2023-05-16T18:13:18.893Z,96334.47
2023-05-16T18:15:45.988Z,96335.06
2023-05-16T18:18:13.047Z,96308.09
2023-05-16T18:20:41.100Z,96326.22
2023-05-16T18:23:08.729Z,96306.03
2023-05-16T18:25:35.674Z,96330.06
2023-05-16T18:28:02.860Z,96301.88
2023-05-16T18:30:29.898Z,96307.72
2023-05-16T18:32:56.962Z,96321.84
2023-05-16T18:35:23.950Z,96309.56
2023-05-16T18:37:50.963Z,96313.59
2023-05-16T18:40:18.378Z,96320.69
2023-05-16T18:42:45.335Z,96310.84
2023-05-16T18:45:12.286Z,96338.56
2023-05-16T18:47:39.293Z,96277.84
2023-05-16T18:50:07.015Z,96332.19
2023-05-16T18:52:35.558Z,96343.06
2023-05-16T18:55:02.612Z,96333.09
2023-05-16T18:57:29.554Z,96312.19
2023-05-16T18:59:56.863Z,96306.78
2023-05-16T19:02:34.075Z,96304.88
2023-05-16T19:05:09.133Z,96344.72
2023-05-16T19:07:36.187Z,96306.47
2023-05-16T19:10:04.287Z,96355.88
2023-05-16T19:12:31.369Z,96359.00
2023-05-16T19:14:58.309Z,96357.75
2023-05-16T19:17:25.380Z,96336.34
2023-05-16T19:19:52.517Z,96339.94
2023-05-16T19:22:19.396Z,96337.91
2023-05-16T19:24:46.353Z,96376.19
2023-05-16T19:27:13.603Z,96374.34
2023-05-16T19:29:40.491Z,96334.34
2023-05-16T19:32:07.881Z,96348.47
2023-05-16T19:34:36.318Z,96353.25
2023-05-16T19:37:04.428Z,96377.59
2023-05-16T19:39:32.304Z,96373.84
2023-05-16T19:42:06.691Z,96374.47
2023-05-16T19:44:34.632Z,96376.97
2023-05-16T19:47:01.551Z,96356.19
2023-05-16T19:49:31.537Z,96344.72
2023-05-16T19:51:58.513Z,96341.16
2023-05-16T19:54:26.010Z,96348.41
2023-05-16T19:56:52.971Z,96380.97
2023-05-16T19:59:20.802Z,96376.31
2023-05-16T20:01:47.699Z,96385.47
2023-05-16T20:04:14.808Z,96377.25
2023-05-16T20:06:41.841Z,96390.44
2023-05-16T20:09:08.851Z,96337.75
2023-05-16T20:11:35.823Z,96357.59
2023-05-16T20:14:02.888Z,96378.03
2023-05-16T20:16:32.977Z,96357.91
2023-05-16T20:19:00.097Z,96361.91
2023-05-16T20:21:27.120Z,96393.56
2023-05-16T20:23:54.059Z,96360.81
2023-05-16T20:26:21.641Z,96374.97
2023-05-16T20:28:48.543Z,96383.00
2023-05-16T20:31:15.581Z,96361.88
2023-05-16T20:33:42.653Z,96368.41
2023-05-16T20:36:09.637Z,96364.41
2023-05-16T20:38:36.816Z,96366.56
2023-05-16T20:41:04.860Z,96348.25
2023-05-16T20:43:31.729Z,96389.31
2023-05-16T20:45:58.626Z,96375.47
2023-05-16T20:48:25.904Z,96362.16
2023-05-16T20:50:52.873Z,96351.47
2023-05-16T20:53:19.853Z,96346.63
2023-05-16T20:55:46.820Z,96367.88
2023-05-16T20:58:15.758Z,96375.28
2023-05-16T21:00:42.724Z,96403.91
2023-05-16T21:03:12.685Z,96407.94
2023-05-16T21:05:39.884Z,96399.16
2023-05-16T21:08:07.109Z,96398.00
2023-05-16T21:10:34.166Z,96399.09
2023-05-16T21:13:01.103Z,96403.28
2023-05-16T21:15:28.524Z,96396.72
2023-05-16T21:17:56.224Z,96374.41
2023-05-16T21:20:23.326Z,96405.41
2023-05-16T21:22:50.240Z,96404.94
2023-05-16T21:25:17.187Z,96418.88
2023-05-16T21:27:44.132Z,96412.09
2023-05-16T21:30:11.710Z,96418.97
2023-05-16T21:32:38.703Z,96417.41
2023-05-16T21:35:07.105Z,96426.72
2023-05-16T21:37:34.151Z,96401.59
2023-05-16T21:40:01.202Z,96388.97
2023-05-16T21:42:28.290Z,96426.91
2023-05-16T21:44:55.191Z,96410.13
2023-05-16T21:47:22.283Z,96388.94
2023-05-16T21:49:49.270Z,96409.69
2023-05-16T21:52:16.221Z,96404.72
2023-05-16T21:54:43.318Z,96428.72
2023-05-16T21:57:10.254Z,96411.16
2023-05-16T21:59:37.135Z,96434.09
2023-05-16T22:02:04.197Z,96431.53
2023-05-16T22:04:31.232Z,96440.72
2023-05-16T22:06:58.222Z,96430.81
2023-05-16T22:09:25.106Z,96423.38
2023-05-16T22:11:52.007Z,96437.06
2023-05-16T22:14:18.999Z,96447.81
2023-05-16T22:16:46.030Z,96445.28
2023-05-16T22:19:13.028Z,96447.63
2023-05-16T22:21:40.059Z,96449.22
2023-05-16T22:24:07.261Z,96455.88
2023-05-16T22:26:34.210Z,96441.03
2023-05-16T22:29:01.198Z,96446.25
2023-05-16T22:31:28.094Z,96453.75
2023-05-16T22:33:55.265Z,96456.88
2023-05-16T22:36:22.265Z,96438.31
2023-05-16T22:38:49.138Z,96439.88
2023-05-16T22:41:16.640Z,96463.28
2023-05-16T22:43:43.629Z,96433.66
2023-05-16T22:46:10.546Z,96446.78
2023-05-16T22:48:37.614Z,96461.47
2023-05-16T22:51:04.632Z,96459.16
2023-05-16T22:53:31.536Z,96476.13
2023-05-16T22:55:58.504Z,96484.06
2023-05-16T22:58:25.394Z,96470.69
2023-05-16T23:00:52.357Z,96476.63
2023-05-16T23:03:19.304Z,96467.31
2023-05-16T23:05:46.332Z,96459.75
2023-05-16T23:08:13.297Z,96473.16
2023-05-16T23:10:40.186Z,96478.97
2023-05-16T23:13:07.094Z,96475.84
2023-05-16T23:15:33.948Z,96454.19
2023-05-16T23:18:00.885Z,96505.47
2023-05-16T23:20:27.783Z,96499.19
2023-05-16T23:22:54.703Z,96478.09
2023-05-16T23:25:21.631Z,96483.13
2023-05-16T23:27:48.618Z,96503.28
2023-05-16T23:30:15.896Z,96501.25
2023-05-16T23:32:42.825Z,96506.75
2023-05-16T23:35:09.854Z,96505.72
2023-05-16T23:37:37.024Z,96506.28
2023-05-16T23:40:04.215Z,96490.06
2023-05-16T23:42:31.553Z,96488.94
2023-05-16T23:44:58.461Z,96489.56
2023-05-16T23:47:25.887Z,96496.47
2023-05-16T23:49:52.790Z,96493.56
2023-05-16T23:52:19.730Z,96509.38
2023-05-16T23:54:46.699Z,96524.56
2023-05-16T23:57:13.604Z,96510.06
2023-05-16T23:59:41.292Z,96516.00
